Terminal Aerodrome Forecast
Issued by NWS

Home | Current Version | Previous Version | Graphics & Text | Print | Product List | Glossary On
Versions: 1 2 3 4 5 6 7 8 9 10 11 12 13 14 15 16 17 18
000
FTUS43 KBIS 272300
TAFJMS
TAF
KJMS 272332Z 2800/2824 15009KT P6SM SKC
     FM280500 05008KT P6SM SCT080
     FM281100 04012KT P6SM BKN060
     FM281500 04013KT P6SM BKN035=

USA.gov is the U.S. government's official web portal to all federal, state and local government web resources and services.